Canton, IL

4:53 AM CST on December 15, 2019 (GMT -0600)
Prospect Heights Addition | | Change Station
Active Advisory: Winter Weather Advisory

Elev 682 ft 40.57 °N, 90.03 °W | Updated 14 seconds ago

Clear
Clear
13.6 °F
Feels Like 14 °F
N
3
Wind Variable Wind from WNW
Gusts 3.0 mph

Today
High -- | Low -- °F
--% Chance of Precip.
Yesterday
High -- | Low -- °F
Precip. -- in
Pressure 30.05 in
Visibility 10.0 miles
Clouds Scattered Clouds 1100 ft
Windchill 14 °F
Dew Point 10 °F
Humidity 86%
Rainfall 0.00 in
Snow Depth Not available.
7:16 AM 4:34 PM
Waning Gibbous, 88% visible
SPECI KPIA 150925Z 30004KT 10SM SCT011 M09/M12 A3005 RMK AO2 T10891117
Pressure 30.05 in
Visibility 10.0 miles
Clouds Scattered Clouds 1100 ft
Windchill 14 °F
Dew Point 10 °F
Humidity 86%
Rainfall 0.00 in
Snow Depth Not available.
7:16 AM 4:34 PM
Waning Gibbous, 88% visible
SPECI KPIA 150925Z 30004KT 10SM SCT011 M09/M12 A3005 RMK AO2 T10891117

Get Your Daily Forecast Email!

Thanks for signing up!

Be on the lookout for a verification email in your inbox.

You'll start receiving severe weather alerts in your inbox..

×

10-Day Weather Forecast

Almanac

Astronomy

Dec. 15, 2019 Rise Set
Actual Time
Civil Twilight
Nautical Twilight
Astronomical Twilight
Moon
Length of Visible Light
Length of Day
Tomorrow will be .
, % of the Moon is Illuminated

Today's Extremes

State Highs State Lows

Community

WunderPhotos

Category 6

Welcome to Category 6. This is the collective home for Weather Underground's featured writeups by Dr. Jeff Masters (right), Bob Henson (left), Chris Burt, and other regular contributors.

Nearby

Air Quality

  Air Quality AQ Index Pollutant
Not available.

Snow Depth

Station Depth Elevation

Earthquake Activity

City Distance Mag. Time & Date
Minimum magnitude displayed is 2.5.

Coastal Water Temperatures

Place Temperature

Stations

Nearby Weather Stations

Station Location Temp. Windchill Dew Point Humidity Wind Precip. Elev Updated Type
                   

Watches & Warnings

Winter Weather Advisory
Issued: 3:53 AM CST Dec. 15, 2019 – National Weather Service

... Winter Weather Advisory in effect from 3 PM this afternoon to
midnight CST Monday night...

* what... snow expected. Total snow accumulations of 2 to 4
inches.

* Where... portions of central, east central and west central
Illinois.

* When... from 3 PM today to midnight CST Monday night.

* Impacts... plan on slippery Road conditions. The hazardous
conditions could impact the morning or evening commute.

Precautionary/preparedness actions...

Slow down and use caution while traveling. If you must travel,
keep an extra flashlight, food, and water in your vehicle in case
of an emergency.

The latest Road conditions for Illinois can be obtained on the
internet at www.Gettingaroundillinois.Com.